sensor_id;sensor_type;location;lat;lon;timestamp;P1;durP1;ratioP1;P2;durP2;ratioP2
8050;SDS011;4068;42.158;24.732;2023-09-07T00:01:36;13.73;;;10.65;;
8050;SDS011;4068;42.158;24.732;2023-09-07T00:04:02;17.27;;;10.75;;
8050;SDS011;4068;42.158;24.732;2023-09-07T00:06:28;16.15;;;10.30;;
8050;SDS011;4068;42.158;24.732;2023-09-07T00:08:53;13.93;;;10.70;;
8050;SDS011;4068;42.158;24.732;2023-09-07T00:11:19;15.45;;;10.45;;
8050;SDS011;4068;42.158;24.732;2023-09-07T00:13:44;14.20;;;9.70;;
8050;SDS011;4068;42.158;24.732;2023-09-07T00:16:10;15.02;;;9.90;;
8050;SDS011;4068;42.158;24.732;2023-09-07T00:18:36;12.13;;;9.82;;
8050;SDS011;4068;42.158;24.732;2023-09-07T00:21:01;15.25;;;10.80;;
8050;SDS011;4068;42.158;24.732;2023-09-07T00:23:28;14.95;;;9.55;;
8050;SDS011;4068;42.158;24.732;2023-09-07T00:25:54;12.23;;;9.13;;
8050;SDS011;4068;42.158;24.732;2023-09-07T00:28:19;18.73;;;9.15;;
8050;SDS011;4068;42.158;24.732;2023-09-07T00:30:45;11.70;;;9.18;;
8050;SDS011;4068;42.158;24.732;2023-09-07T00:33:10;14.18;;;9.23;;
8050;SDS011;4068;42.158;24.732;2023-09-07T00:35:36;10.85;;;8.80;;
8050;SDS011;4068;42.158;24.732;2023-09-07T00:38:01;11.80;;;9.23;;
8050;SDS011;4068;42.158;24.732;2023-09-07T00:40:27;14.68;;;8.63;;
8050;SDS011;4068;42.158;24.732;2023-09-07T00:42:53;14.85;;;9.02;;
8050;SDS011;4068;42.158;24.732;2023-09-07T00:45:19;12.65;;;8.98;;
8050;SDS011;4068;42.158;24.732;2023-09-07T00:47:45;15.43;;;7.95;;
8050;SDS011;4068;42.158;24.732;2023-09-07T00:50:10;12.02;;;7.88;;
8050;SDS011;4068;42.158;24.732;2023-09-07T00:52:39;14.88;;;8.23;;
8050;SDS011;4068;42.158;24.732;2023-09-07T00:55:07;11.52;;;7.88;;
8050;SDS011;4068;42.158;24.732;2023-09-07T00:57:34;19.85;;;10.20;;
8050;SDS011;4068;42.158;24.732;2023-09-07T01:00:02;12.73;;;7.82;;
8050;SDS011;4068;42.158;24.732;2023-09-07T01:02:29;11.55;;;8.48;;
8050;SDS011;4068;42.158;24.732;2023-09-07T01:04:54;10.90;;;9.30;;
8050;SDS011;4068;42.158;24.732;2023-09-07T01:07:20;12.52;;;9.60;;
8050;SDS011;4068;42.158;24.732;2023-09-07T01:09:52;15.57;;;10.13;;
8050;SDS011;4068;42.158;24.732;2023-09-07T01:12:21;19.30;;;12.43;;
8050;SDS011;4068;42.158;24.732;2023-09-07T01:14:46;17.17;;;12.15;;
8050;SDS011;4068;42.158;24.732;2023-09-07T01:17:12;15.88;;;13.00;;
8050;SDS011;4068;42.158;24.732;2023-09-07T01:19:38;16.30;;;12.07;;
8050;SDS011;4068;42.158;24.732;2023-09-07T01:22:05;18.48;;;13.63;;
8050;SDS011;4068;42.158;24.732;2023-09-07T01:24:32;18.58;;;13.77;;
8050;SDS011;4068;42.158;24.732;2023-09-07T01:27:00;20.75;;;13.88;;
8050;SDS011;4068;42.158;24.732;2023-09-07T01:29:28;16.27;;;13.50;;
8050;SDS011;4068;42.158;24.732;2023-09-07T01:31:54;19.52;;;13.82;;
8050;SDS011;4068;42.158;24.732;2023-09-07T01:34:20;18.13;;;14.70;;
8050;SDS011;4068;42.158;24.732;2023-09-07T01:36:45;20.77;;;15.23;;
8050;SDS011;4068;42.158;24.732;2023-09-07T01:39:11;22.70;;;14.85;;
8050;SDS011;4068;42.158;24.732;2023-09-07T01:41:36;23.55;;;15.60;;
8050;SDS011;4068;42.158;24.732;2023-09-07T01:44:02;27.50;;;16.52;;
8050;SDS011;4068;42.158;24.732;2023-09-07T01:46:27;21.48;;;16.65;;
8050;SDS011;4068;42.158;24.732;2023-09-07T01:48:53;25.98;;;16.67;;
8050;SDS011;4068;42.158;24.732;2023-09-07T01:51:18;23.15;;;16.75;;
8050;SDS011;4068;42.158;24.732;2023-09-07T01:53:46;23.35;;;17.40;;
8050;SDS011;4068;42.158;24.732;2023-09-07T01:56:13;24.33;;;17.45;;
8050;SDS011;4068;42.158;24.732;2023-09-07T01:58:39;21.27;;;17.60;;
8050;SDS011;4068;42.158;24.732;2023-09-07T02:01:06;25.33;;;18.10;;
8050;SDS011;4068;42.158;24.732;2023-09-07T02:03:31;22.52;;;16.75;;
8050;SDS011;4068;42.158;24.732;2023-09-07T02:05:56;25.52;;;18.42;;
8050;SDS011;4068;42.158;24.732;2023-09-07T02:08:22;24.05;;;17.27;;
8050;SDS011;4068;42.158;24.732;2023-09-07T02:10:48;25.02;;;17.45;;
8050;SDS011;4068;42.158;24.732;2023-09-07T02:13:13;24.23;;;17.70;;
8050;SDS011;4068;42.158;24.732;2023-09-07T02:15:39;23.27;;;17.50;;
8050;SDS011;4068;42.158;24.732;2023-09-07T02:18:04;23.63;;;17.77;;
8050;SDS011;4068;42.158;24.732;2023-09-07T02:20:31;25.80;;;18.45;;
8050;SDS011;4068;42.158;24.732;2023-09-07T02:22:57;26.25;;;18.67;;
8050;SDS011;4068;42.158;24.732;2023-09-07T02:25:22;25.63;;;18.25;;
8050;SDS011;4068;42.158;24.732;2023-09-07T02:27:48;29.35;;;18.98;;
8050;SDS011;4068;42.158;24.732;2023-09-07T02:30:13;26.67;;;19.15;;
8050;SDS011;4068;42.158;24.732;2023-09-07T02:32:40;27.58;;;20.38;;
8050;SDS011;4068;42.158;24.732;2023-09-07T02:35:07;27.00;;;20.88;;
8050;SDS011;4068;42.158;24.732;2023-09-07T02:37:33;27.15;;;20.17;;
8050;SDS011;4068;42.158;24.732;2023-09-07T02:40:00;31.65;;;20.88;;
8050;SDS011;4068;42.158;24.732;2023-09-07T02:42:25;30.55;;;21.02;;
8050;SDS011;4068;42.158;24.732;2023-09-07T02:44:51;29.30;;;21.58;;
8050;SDS011;4068;42.158;24.732;2023-09-07T02:47:16;33.90;;;21.95;;
8050;SDS011;4068;42.158;24.732;2023-09-07T02:49:42;28.45;;;21.48;;
8050;SDS011;4068;42.158;24.732;2023-09-07T02:52:07;32.65;;;22.73;;
8050;SDS011;4068;42.158;24.732;2023-09-07T02:54:33;31.70;;;23.13;;
8050;SDS011;4068;42.158;24.732;2023-09-07T02:56:58;31.33;;;22.85;;
8050;SDS011;4068;42.158;24.732;2023-09-07T02:59:23;37.30;;;23.50;;
8050;SDS011;4068;42.158;24.732;2023-09-07T03:01:49;31.05;;;23.08;;
8050;SDS011;4068;42.158;24.732;2023-09-07T03:04:14;31.40;;;22.33;;
8050;SDS011;4068;42.158;24.732;2023-09-07T03:06:40;36.47;;;23.98;;
8050;SDS011;4068;42.158;24.732;2023-09-07T03:09:05;33.97;;;22.13;;
8050;SDS011;4068;42.158;24.732;2023-09-07T03:11:34;34.00;;;23.33;;
8050;SDS011;4068;42.158;24.732;2023-09-07T03:17:22;31.40;;;22.63;;
8050;SDS011;4068;42.158;24.732;2023-09-07T03:19:47;33.03;;;22.45;;
8050;SDS011;4068;42.158;24.732;2023-09-07T03:22:13;36.65;;;24.13;;
8050;SDS011;4068;42.158;24.732;2023-09-07T03:24:39;35.05;;;23.40;;
8050;SDS011;4068;42.158;24.732;2023-09-07T03:27:04;32.13;;;24.33;;
8050;SDS011;4068;42.158;24.732;2023-09-07T03:29:33;35.85;;;25.38;;
8050;SDS011;4068;42.158;24.732;2023-09-07T03:32:00;32.95;;;24.05;;
8050;SDS011;4068;42.158;24.732;2023-09-07T03:34:26;38.33;;;23.80;;
8050;SDS011;4068;42.158;24.732;2023-09-07T03:36:51;38.13;;;24.65;;
8050;SDS011;4068;42.158;24.732;2023-09-07T03:39:17;32.17;;;21.60;;
8050;SDS011;4068;42.158;24.732;2023-09-07T03:41:49;38.30;;;23.58;;
8050;SDS011;4068;42.158;24.732;2023-09-07T03:44:14;31.05;;;22.60;;
8050;SDS011;4068;42.158;24.732;2023-09-07T03:46:39;35.72;;;24.38;;
8050;SDS011;4068;42.158;24.732;2023-09-07T03:49:05;38.25;;;23.05;;
8050;SDS011;4068;42.158;24.732;2023-09-07T03:51:30;32.58;;;22.23;;
8050;SDS011;4068;42.158;24.732;2023-09-07T03:53:56;34.70;;;22.88;;
8050;SDS011;4068;42.158;24.732;2023-09-07T03:56:22;40.00;;;23.75;;
8050;SDS011;4068;42.158;24.732;2023-09-07T03:58:48;37.30;;;23.35;;
8050;SDS011;4068;42.158;24.732;2023-09-07T04:01:13;34.10;;;22.10;;
8050;SDS011;4068;42.158;24.732;2023-09-07T04:03:39;31.02;;;22.05;;
8050;SDS011;4068;42.158;24.732;2023-09-07T04:06:05;34.40;;;23.17;;
8050;SDS011;4068;42.158;24.732;2023-09-07T04:08:31;38.85;;;22.25;;
8050;SDS011;4068;42.158;24.732;2023-09-07T04:10:57;31.48;;;21.75;;
8050;SDS011;4068;42.158;24.732;2023-09-07T04:13:23;32.35;;;21.85;;
8050;SDS011;4068;42.158;24.732;2023-09-07T04:15:48;33.05;;;20.75;;
8050;SDS011;4068;42.158;24.732;2023-09-07T04:18:14;31.35;;;20.40;;
8050;SDS011;4068;42.158;24.732;2023-09-07T04:20:43;43.30;;;23.27;;
8050;SDS011;4068;42.158;24.732;2023-09-07T04:23:08;38.38;;;21.23;;
8050;SDS011;4068;42.158;24.732;2023-09-07T04:25:34;30.10;;;21.15;;
8050;SDS011;4068;42.158;24.732;2023-09-07T04:28:00;39.70;;;21.30;;
8050;SDS011;4068;42.158;24.732;2023-09-07T04:30:25;32.15;;;19.48;;
8050;SDS011;4068;42.158;24.732;2023-09-07T04:32:51;29.60;;;18.73;;
8050;SDS011;4068;42.158;24.732;2023-09-07T04:35:17;28.75;;;18.88;;
8050;SDS011;4068;42.158;24.732;2023-09-07T04:37:43;26.13;;;18.23;;
8050;SDS011;4068;42.158;24.732;2023-09-07T04:40:08;27.90;;;18.65;;
8050;SDS011;4068;42.158;24.732;2023-09-07T04:42:34;34.95;;;19.35;;
8050;SDS011;4068;42.158;24.732;2023-09-07T04:45:00;28.55;;;19.17;;
8050;SDS011;4068;42.158;24.732;2023-09-07T04:47:25;29.75;;;18.02;;
8050;SDS011;4068;42.158;24.732;2023-09-07T04:49:51;24.88;;;17.58;;
8050;SDS011;4068;42.158;24.732;2023-09-07T04:52:16;26.50;;;17.88;;
8050;SDS011;4068;42.158;24.732;2023-09-07T04:54:42;29.67;;;18.10;;
8050;SDS011;4068;42.158;24.732;2023-09-07T04:57:08;29.75;;;18.48;;
8050;SDS011;4068;42.158;24.732;2023-09-07T04:59:41;25.98;;;17.30;;
8050;SDS011;4068;42.158;24.732;2023-09-07T05:02:14;25.08;;;16.77;;
8050;SDS011;4068;42.158;24.732;2023-09-07T05:05:05;23.85;;;17.42;;
8050;SDS011;4068;42.158;24.732;2023-09-07T05:07:31;25.25;;;16.90;;
8050;SDS011;4068;42.158;24.732;2023-09-07T05:09:57;25.52;;;16.38;;
8050;SDS011;4068;42.158;24.732;2023-09-07T05:12:22;20.70;;;16.08;;
8050;SDS011;4068;42.158;24.732;2023-09-07T05:14:48;26.98;;;17.55;;
8050;SDS011;4068;42.158;24.732;2023-09-07T05:17:13;25.85;;;16.85;;
8050;SDS011;4068;42.158;24.732;2023-09-07T05:19:38;25.42;;;16.98;;
8050;SDS011;4068;42.158;24.732;2023-09-07T05:22:04;26.48;;;16.55;;
8050;SDS011;4068;42.158;24.732;2023-09-07T05:24:29;21.33;;;16.20;;
8050;SDS011;4068;42.158;24.732;2023-09-07T05:26:55;23.98;;;15.70;;
8050;SDS011;4068;42.158;24.732;2023-09-07T05:29:20;23.25;;;16.20;;
8050;SDS011;4068;42.158;24.732;2023-09-07T05:31:46;21.10;;;15.18;;
8050;SDS011;4068;42.158;24.732;2023-09-07T05:34:12;23.45;;;15.07;;
8050;SDS011;4068;42.158;24.732;2023-09-07T05:36:37;24.33;;;15.75;;
8050;SDS011;4068;42.158;24.732;2023-09-07T05:39:03;22.60;;;15.90;;
8050;SDS011;4068;42.158;24.732;2023-09-07T05:41:29;24.60;;;16.27;;
8050;SDS011;4068;42.158;24.732;2023-09-07T05:43:55;30.55;;;15.48;;
8050;SDS011;4068;42.158;24.732;2023-09-07T05:46:20;24.00;;;15.77;;
8050;SDS011;4068;42.158;24.732;2023-09-07T05:48:46;22.58;;;15.90;;
8050;SDS011;4068;42.158;24.732;2023-09-07T05:51:11;21.48;;;15.13;;
8050;SDS011;4068;42.158;24.732;2023-09-07T05:53:38;25.95;;;15.25;;
8050;SDS011;4068;42.158;24.732;2023-09-07T05:56:04;19.65;;;14.70;;
8050;SDS011;4068;42.158;24.732;2023-09-07T05:58:29;24.30;;;15.13;;
8050;SDS011;4068;42.158;24.732;2023-09-07T06:00:55;22.33;;;15.15;;
8050;SDS011;4068;42.158;24.732;2023-09-07T06:03:20;20.33;;;14.13;;
8050;SDS011;4068;42.158;24.732;2023-09-07T06:05:46;18.63;;;12.85;;
8050;SDS011;4068;42.158;24.732;2023-09-07T06:08:11;20.83;;;14.02;;
8050;SDS011;4068;42.158;24.732;2023-09-07T06:10:37;18.58;;;13.18;;
8050;SDS011;4068;42.158;24.732;2023-09-07T06:13:03;22.60;;;14.07;;
8050;SDS011;4068;42.158;24.732;2023-09-07T06:15:29;20.08;;;13.27;;
8050;SDS011;4068;42.158;24.732;2023-09-07T06:17:54;28.67;;;14.73;;
8050;SDS011;4068;42.158;24.732;2023-09-07T06:20:20;25.30;;;16.88;;
8050;SDS011;4068;42.158;24.732;2023-09-07T06:22:45;23.48;;;17.45;;
8050;SDS011;4068;42.158;24.732;2023-09-07T06:25:11;24.00;;;15.77;;
8050;SDS011;4068;42.158;24.732;2023-09-07T06:27:36;19.33;;;13.65;;
8050;SDS011;4068;42.158;24.732;2023-09-07T06:30:03;18.67;;;13.45;;
8050;SDS011;4068;42.158;24.732;2023-09-07T06:32:30;17.73;;;13.23;;
8050;SDS011;4068;42.158;24.732;2023-09-07T06:34:56;19.00;;;13.02;;
8050;SDS011;4068;42.158;24.732;2023-09-07T06:37:21;16.95;;;11.95;;
8050;SDS011;4068;42.158;24.732;2023-09-07T06:39:49;13.93;;;10.98;;
8050;SDS011;4068;42.158;24.732;2023-09-07T06:42:15;14.15;;;10.38;;
8050;SDS011;4068;42.158;24.732;2023-09-07T06:44:40;15.70;;;10.30;;
8050;SDS011;4068;42.158;24.732;2023-09-07T06:47:06;14.35;;;10.75;;
8050;SDS011;4068;42.158;24.732;2023-09-07T06:49:32;16.00;;;10.93;;
8050;SDS011;4068;42.158;24.732;2023-09-07T06:51:57;14.27;;;10.25;;
8050;SDS011;4068;42.158;24.732;2023-09-07T06:54:23;13.15;;;11.02;;
8050;SDS011;4068;42.158;24.732;2023-09-07T06:56:48;15.25;;;11.63;;
8050;SDS011;4068;42.158;24.732;2023-09-07T06:59:14;15.73;;;11.75;;
8050;SDS011;4068;42.158;24.732;2023-09-07T07:01:40;17.83;;;11.00;;
8050;SDS011;4068;42.158;24.732;2023-09-07T07:04:06;14.68;;;10.65;;
8050;SDS011;4068;42.158;24.732;2023-09-07T07:06:32;14.88;;;10.25;;
8050;SDS011;4068;42.158;24.732;2023-09-07T07:08:58;17.05;;;10.82;;
8050;SDS011;4068;42.158;24.732;2023-09-07T07:11:23;15.63;;;10.00;;
8050;SDS011;4068;42.158;24.732;2023-09-07T07:13:49;12.52;;;9.63;;
8050;SDS011;4068;42.158;24.732;2023-09-07T07:16:15;16.17;;;10.50;;
8050;SDS011;4068;42.158;24.732;2023-09-07T07:18:41;13.27;;;9.77;;
8050;SDS011;4068;42.158;24.732;2023-09-07T07:21:07;17.45;;;9.50;;
8050;SDS011;4068;42.158;24.732;2023-09-07T07:23:34;12.05;;;9.93;;
8050;SDS011;4068;42.158;24.732;2023-09-07T07:25:59;14.60;;;9.30;;
8050;SDS011;4068;42.158;24.732;2023-09-07T07:28:25;11.07;;;8.60;;
8050;SDS011;4068;42.158;24.732;2023-09-07T07:30:51;14.75;;;9.60;;
8050;SDS011;4068;42.158;24.732;2023-09-07T07:33:18;15.18;;;10.07;;
8050;SDS011;4068;42.158;24.732;2023-09-07T07:35:44;13.55;;;9.30;;
8050;SDS011;4068;42.158;24.732;2023-09-07T07:38:11;18.23;;;9.90;;
8050;SDS011;4068;42.158;24.732;2023-09-07T07:40:38;13.50;;;9.45;;
8050;SDS011;4068;42.158;24.732;2023-09-07T07:43:04;13.85;;;8.48;;
8050;SDS011;4068;42.158;24.732;2023-09-07T07:45:29;17.50;;;9.48;;
8050;SDS011;4068;42.158;24.732;2023-09-07T07:47:55;11.73;;;8.48;;
8050;SDS011;4068;42.158;24.732;2023-09-07T07:50:20;12.52;;;8.60;;
8050;SDS011;4068;42.158;24.732;2023-09-07T07:52:46;16.17;;;8.73;;
8050;SDS011;4068;42.158;24.732;2023-09-07T07:55:11;10.93;;;7.93;;
8050;SDS011;4068;42.158;24.732;2023-09-07T07:57:37;11.00;;;8.18;;
8050;SDS011;4068;42.158;24.732;2023-09-07T08:00:03;12.05;;;7.70;;
8050;SDS011;4068;42.158;24.732;2023-09-07T08:02:30;10.35;;;8.32;;
8050;SDS011;4068;42.158;24.732;2023-09-07T08:04:55;10.60;;;8.07;;
8050;SDS011;4068;42.158;24.732;2023-09-07T08:07:22;9.98;;;7.72;;
8050;SDS011;4068;42.158;24.732;2023-09-07T08:09:47;11.63;;;8.32;;
8050;SDS011;4068;42.158;24.732;2023-09-07T08:12:13;11.93;;;8.20;;
8050;SDS011;4068;42.158;24.732;2023-09-07T08:14:38;9.70;;;7.82;;
8050;SDS011;4068;42.158;24.732;2023-09-07T08:17:04;8.98;;;7.45;;
8050;SDS011;4068;42.158;24.732;2023-09-07T08:19:29;12.90;;;8.50;;
8050;SDS011;4068;42.158;24.732;2023-09-07T08:21:55;10.73;;;7.68;;
8050;SDS011;4068;42.158;24.732;2023-09-07T08:24:20;11.70;;;8.82;;
8050;SDS011;4068;42.158;24.732;2023-09-07T08:26:46;12.55;;;8.48;;
8050;SDS011;4068;42.158;24.732;2023-09-07T08:29:15;17.70;;;9.13;;
8050;SDS011;4068;42.158;24.732;2023-09-07T08:31:41;11.30;;;7.93;;
8050;SDS011;4068;42.158;24.732;2023-09-07T08:34:07;12.77;;;8.60;;
8050;SDS011;4068;42.158;24.732;2023-09-07T08:36:40;11.30;;;8.15;;
8050;SDS011;4068;42.158;24.732;2023-09-07T08:39:06;11.02;;;8.35;;
8050;SDS011;4068;42.158;24.732;2023-09-07T08:41:38;14.80;;;7.80;;
8050;SDS011;4068;42.158;24.732;2023-09-07T08:44:12;13.02;;;7.68;;
8050;SDS011;4068;42.158;24.732;2023-09-07T08:46:40;15.15;;;7.55;;
8050;SDS011;4068;42.158;24.732;2023-09-07T08:49:07;11.05;;;7.13;;
8050;SDS011;4068;42.158;24.732;2023-09-07T08:51:34;13.07;;;7.70;;
8050;SDS011;4068;42.158;24.732;2023-09-07T08:54:02;7.63;;;6.28;;
8050;SDS011;4068;42.158;24.732;2023-09-07T08:56:28;11.48;;;6.18;;
8050;SDS011;4068;42.158;24.732;2023-09-07T08:58:54;10.80;;;6.80;;
8050;SDS011;4068;42.158;24.732;2023-09-07T09:01:19;11.23;;;7.18;;
8050;SDS011;4068;42.158;24.732;2023-09-07T09:03:46;12.40;;;6.88;;
8050;SDS011;4068;42.158;24.732;2023-09-07T09:06:14;12.55;;;7.00;;
8050;SDS011;4068;42.158;24.732;2023-09-07T09:08:45;9.20;;;6.60;;
8050;SDS011;4068;42.158;24.732;2023-09-07T09:11:14;10.48;;;6.95;;
8050;SDS011;4068;42.158;24.732;2023-09-07T09:13:41;18.08;;;8.70;;
8050;SDS011;4068;42.158;24.732;2023-09-07T09:16:06;22.80;;;9.30;;
8050;SDS011;4068;42.158;24.732;2023-09-07T09:18:32;20.08;;;9.63;;
8050;SDS011;4068;42.158;24.732;2023-09-07T09:20:58;20.05;;;8.55;;
8050;SDS011;4068;42.158;24.732;2023-09-07T09:23:36;14.10;;;8.90;;
8050;SDS011;4068;42.158;24.732;2023-09-07T09:26:05;27.70;;;9.90;;
8050;SDS011;4068;42.158;24.732;2023-09-07T09:28:31;19.65;;;8.20;;
8050;SDS011;4068;42.158;24.732;2023-09-07T09:31:00;16.00;;;8.85;;
8050;SDS011;4068;42.158;24.732;2023-09-07T09:33:27;9.65;;;8.48;;
8050;SDS011;4068;42.158;24.732;2023-09-07T09:35:55;11.43;;;8.40;;
8050;SDS011;4068;42.158;24.732;2023-09-07T09:38:21;13.55;;;9.10;;
8050;SDS011;4068;42.158;24.732;2023-09-07T09:40:47;17.33;;;8.68;;
8050;SDS011;4068;42.158;24.732;2023-09-07T09:43:13;10.80;;;8.00;;
8050;SDS011;4068;42.158;24.732;2023-09-07T09:45:38;15.20;;;8.43;;
8050;SDS011;4068;42.158;24.732;2023-09-07T09:48:04;12.80;;;8.52;;
8050;SDS011;4068;42.158;24.732;2023-09-07T09:50:31;11.65;;;7.57;;
8050;SDS011;4068;42.158;24.732;2023-09-07T09:53:02;14.05;;;8.65;;
8050;SDS011;4068;42.158;24.732;2023-09-07T09:55:30;15.73;;;8.25;;
8050;SDS011;4068;42.158;24.732;2023-09-07T09:57:56;10.27;;;7.00;;
8050;SDS011;4068;42.158;24.732;2023-09-07T10:00:22;9.55;;;7.25;;
8050;SDS011;4068;42.158;24.732;2023-09-07T10:03:13;12.95;;;7.82;;
8050;SDS011;4068;42.158;24.732;2023-09-07T10:05:45;14.07;;;7.80;;
8050;SDS011;4068;42.158;24.732;2023-09-07T10:08:15;9.32;;;7.30;;
8050;SDS011;4068;42.158;24.732;2023-09-07T10:10:43;9.32;;;7.18;;
8050;SDS011;4068;42.158;24.732;2023-09-07T10:13:13;10.13;;;6.15;;
8050;SDS011;4068;42.158;24.732;2023-09-07T10:15:39;7.70;;;5.88;;
8050;SDS011;4068;42.158;24.732;2023-09-07T10:18:06;10.30;;;5.90;;
8050;SDS011;4068;42.158;24.732;2023-09-07T10:20:48;9.73;;;6.50;;
8050;SDS011;4068;42.158;24.732;2023-09-07T10:23:17;7.68;;;5.43;;
8050;SDS011;4068;42.158;24.732;2023-09-07T10:25:47;9.35;;;5.75;;
8050;SDS011;4068;42.158;24.732;2023-09-07T10:28:17;15.35;;;7.07;;
8050;SDS011;4068;42.158;24.732;2023-09-07T10:33:47;11.18;;;6.05;;
8050;SDS011;4068;42.158;24.732;2023-09-07T10:36:48;10.18;;;6.13;;
8050;SDS011;4068;42.158;24.732;2023-09-07T10:39:50;11.45;;;6.80;;
8050;SDS011;4068;42.158;24.732;2023-09-07T10:42:21;8.98;;;6.82;;
8050;SDS011;4068;42.158;24.732;2023-09-07T10:44:50;14.35;;;7.32;;
8050;SDS011;4068;42.158;24.732;2023-09-07T10:47:16;7.93;;;6.43;;
8050;SDS011;4068;42.158;24.732;2023-09-07T10:49:41;12.10;;;6.00;;
8050;SDS011;4068;42.158;24.732;2023-09-07T10:52:07;19.80;;;6.13;;
8050;SDS011;4068;42.158;24.732;2023-09-07T10:54:33;12.68;;;6.93;;
8050;SDS011;4068;42.158;24.732;2023-09-07T10:57:07;9.95;;;6.63;;
8050;SDS011;4068;42.158;24.732;2023-09-07T10:59:33;11.30;;;6.43;;
8050;SDS011;4068;42.158;24.732;2023-09-07T11:02:05;10.43;;;6.00;;
8050;SDS011;4068;42.158;24.732;2023-09-07T11:04:31;7.95;;;7.15;;
8050;SDS011;4068;42.158;24.732;2023-09-07T11:06:56;7.60;;;5.65;;
8050;SDS011;4068;42.158;24.732;2023-09-07T11:09:22;7.25;;;5.80;;
8050;SDS011;4068;42.158;24.732;2023-09-07T11:11:48;6.90;;;5.63;;
8050;SDS011;4068;42.158;24.732;2023-09-07T11:14:13;7.05;;;5.93;;
8050;SDS011;4068;42.158;24.732;2023-09-07T11:16:40;10.25;;;6.10;;
8050;SDS011;4068;42.158;24.732;2023-09-07T11:19:06;11.80;;;6.28;;
8050;SDS011;4068;42.158;24.732;2023-09-07T11:21:32;10.48;;;6.50;;
8050;SDS011;4068;42.158;24.732;2023-09-07T11:23:59;6.43;;;5.55;;
8050;SDS011;4068;42.158;24.732;2023-09-07T11:26:25;8.77;;;6.63;;
8050;SDS011;4068;42.158;24.732;2023-09-07T11:28:51;11.52;;;5.97;;
8050;SDS011;4068;42.158;24.732;2023-09-07T11:31:19;9.07;;;6.72;;
8050;SDS011;4068;42.158;24.732;2023-09-07T11:33:48;8.00;;;5.97;;
8050;SDS011;4068;42.158;24.732;2023-09-07T11:36:14;11.32;;;6.07;;
8050;SDS011;4068;42.158;24.732;2023-09-07T11:38:42;10.68;;;6.05;;
8050;SDS011;4068;42.158;24.732;2023-09-07T11:41:09;9.60;;;5.75;;
8050;SDS011;4068;42.158;24.732;2023-09-07T11:43:34;7.80;;;5.25;;
8050;SDS011;4068;42.158;24.732;2023-09-07T11:45:59;9.32;;;6.00;;
8050;SDS011;4068;42.158;24.732;2023-09-07T11:48:26;6.60;;;5.68;;
8050;SDS011;4068;42.158;24.732;2023-09-07T11:50:51;13.35;;;5.95;;
8050;SDS011;4068;42.158;24.732;2023-09-07T11:53:17;10.70;;;6.10;;
8050;SDS011;4068;42.158;24.732;2023-09-07T11:55:42;9.48;;;5.55;;
8050;SDS011;4068;42.158;24.732;2023-09-07T11:58:08;8.93;;;5.63;;
8050;SDS011;4068;42.158;24.732;2023-09-07T12:00:34;9.27;;;5.70;;
8050;SDS011;4068;42.158;24.732;2023-09-07T12:02:59;9.35;;;5.57;;
8050;SDS011;4068;42.158;24.732;2023-09-07T12:05:25;7.78;;;5.35;;
8050;SDS011;4068;42.158;24.732;2023-09-07T12:07:50;9.50;;;5.57;;
8050;SDS011;4068;42.158;24.732;2023-09-07T12:10:16;12.50;;;5.38;;
8050;SDS011;4068;42.158;24.732;2023-09-07T12:12:41;9.50;;;5.30;;
8050;SDS011;4068;42.158;24.732;2023-09-07T12:15:09;8.73;;;6.32;;
8050;SDS011;4068;42.158;24.732;2023-09-07T12:17:36;6.00;;;5.40;;
8050;SDS011;4068;42.158;24.732;2023-09-07T12:20:02;12.63;;;6.18;;
8050;SDS011;4068;42.158;24.732;2023-09-07T12:22:30;8.52;;;5.70;;
8050;SDS011;4068;42.158;24.732;2023-09-07T12:24:55;6.82;;;5.70;;
8050;SDS011;4068;42.158;24.732;2023-09-07T12:27:21;7.00;;;4.78;;
8050;SDS011;4068;42.158;24.732;2023-09-07T12:29:46;11.48;;;5.93;;
8050;SDS011;4068;42.158;24.732;2023-09-07T12:32:12;8.50;;;5.22;;
8050;SDS011;4068;42.158;24.732;2023-09-07T12:34:37;7.72;;;5.20;;
8050;SDS011;4068;42.158;24.732;2023-09-07T12:37:04;6.97;;;4.93;;
8050;SDS011;4068;42.158;24.732;2023-09-07T12:39:29;6.53;;;4.95;;
8050;SDS011;4068;42.158;24.732;2023-09-07T12:41:55;5.88;;;5.18;;
8050;SDS011;4068;42.158;24.732;2023-09-07T12:44:20;8.30;;;5.10;;
8050;SDS011;4068;42.158;24.732;2023-09-07T12:46:46;7.28;;;5.05;;
8050;SDS011;4068;42.158;24.732;2023-09-07T12:49:14;10.50;;;5.63;;
8050;SDS011;4068;42.158;24.732;2023-09-07T12:51:40;7.30;;;4.93;;
8050;SDS011;4068;42.158;24.732;2023-09-07T12:54:06;11.40;;;5.55;;
8050;SDS011;4068;42.158;24.732;2023-09-07T12:56:32;8.07;;;5.57;;
8050;SDS011;4068;42.158;24.732;2023-09-07T12:58:57;8.45;;;6.50;;
8050;SDS011;4068;42.158;24.732;2023-09-07T13:01:36;6.20;;;5.15;;
8050;SDS011;4068;42.158;24.732;2023-09-07T13:04:13;6.60;;;5.38;;
8050;SDS011;4068;42.158;24.732;2023-09-07T13:06:39;6.57;;;4.70;;
8050;SDS011;4068;42.158;24.732;2023-09-07T13:09:04;7.93;;;5.22;;
8050;SDS011;4068;42.158;24.732;2023-09-07T13:11:30;7.60;;;5.25;;
8050;SDS011;4068;42.158;24.732;2023-09-07T13:13:55;6.68;;;5.30;;
8050;SDS011;4068;42.158;24.732;2023-09-07T13:16:33;10.07;;;5.30;;
8050;SDS011;4068;42.158;24.732;2023-09-07T13:19:15;7.82;;;5.20;;
8050;SDS011;4068;42.158;24.732;2023-09-07T13:21:41;9.60;;;5.40;;
8050;SDS011;4068;42.158;24.732;2023-09-07T13:24:06;7.05;;;5.40;;
8050;SDS011;4068;42.158;24.732;2023-09-07T13:26:31;8.93;;;5.40;;
8050;SDS011;4068;42.158;24.732;2023-09-07T13:28:57;5.80;;;5.20;;
8050;SDS011;4068;42.158;24.732;2023-09-07T13:31:23;9.27;;;4.93;;
8050;SDS011;4068;42.158;24.732;2023-09-07T13:33:48;14.77;;;5.72;;
8050;SDS011;4068;42.158;24.732;2023-09-07T13:36:14;7.32;;;4.97;;
8050;SDS011;4068;42.158;24.732;2023-09-07T13:38:39;8.32;;;4.85;;
8050;SDS011;4068;42.158;24.732;2023-09-07T13:41:06;8.70;;;5.20;;
8050;SDS011;4068;42.158;24.732;2023-09-07T13:43:32;6.15;;;5.20;;
8050;SDS011;4068;42.158;24.732;2023-09-07T13:45:57;7.55;;;5.22;;
8050;SDS011;4068;42.158;24.732;2023-09-07T13:48:22;8.73;;;5.88;;
8050;SDS011;4068;42.158;24.732;2023-09-07T13:50:48;8.27;;;5.50;;
8050;SDS011;4068;42.158;24.732;2023-09-07T13:53:14;9.23;;;5.32;;
8050;SDS011;4068;42.158;24.732;2023-09-07T13:55:39;12.23;;;5.03;;
8050;SDS011;4068;42.158;24.732;2023-09-07T13:58:07;7.78;;;5.57;;
8050;SDS011;4068;42.158;24.732;2023-09-07T14:00:32;10.02;;;5.18;;
8050;SDS011;4068;42.158;24.732;2023-09-07T14:02:58;12.70;;;5.97;;
8050;SDS011;4068;42.158;24.732;2023-09-07T14:05:23;6.47;;;5.20;;
8050;SDS011;4068;42.158;24.732;2023-09-07T14:07:49;9.20;;;6.07;;
8050;SDS011;4068;42.158;24.732;2023-09-07T14:10:14;8.80;;;5.43;;
8050;SDS011;4068;42.158;24.732;2023-09-07T14:12:41;8.70;;;5.50;;
8050;SDS011;4068;42.158;24.732;2023-09-07T14:15:09;8.45;;;5.80;;
8050;SDS011;4068;42.158;24.732;2023-09-07T14:17:34;18.80;;;11.88;;
8050;SDS011;4068;42.158;24.732;2023-09-07T14:20:00;20.30;;;12.57;;
8050;SDS011;4068;42.158;24.732;2023-09-07T14:22:25;18.67;;;11.57;;
8050;SDS011;4068;42.158;24.732;2023-09-07T14:24:50;16.13;;;10.40;;
8050;SDS011;4068;42.158;24.732;2023-09-07T14:27:16;10.15;;;6.25;;
8050;SDS011;4068;42.158;24.732;2023-09-07T14:29:41;9.10;;;5.70;;
8050;SDS011;4068;42.158;24.732;2023-09-07T14:32:07;15.45;;;6.63;;
8050;SDS011;4068;42.158;24.732;2023-09-07T14:34:32;8.43;;;6.35;;
8050;SDS011;4068;42.158;24.732;2023-09-07T14:36:58;9.30;;;6.97;;
8050;SDS011;4068;42.158;24.732;2023-09-07T14:39:23;14.98;;;8.05;;
8050;SDS011;4068;42.158;24.732;2023-09-07T14:41:49;12.70;;;6.35;;
8050;SDS011;4068;42.158;24.732;2023-09-07T14:44:17;11.55;;;6.50;;
8050;SDS011;4068;42.158;24.732;2023-09-07T14:46:43;11.05;;;5.93;;
8050;SDS011;4068;42.158;24.732;2023-09-07T14:49:09;9.63;;;5.28;;